sensor_id;sensor_type;location;lat;lon;timestamp;P1;durP1;ratioP1;P2;durP2;ratioP2
24357;SDS011;13668;52.154;5.580;2023-08-31T00:00:10;3.00;;;1.73;;
24357;SDS011;13668;52.154;5.580;2023-08-31T00:02:37;4.20;;;1.95;;
24357;SDS011;13668;52.154;5.580;2023-08-31T00:05:04;2.10;;;1.60;;
24357;SDS011;13668;52.154;5.580;2023-08-31T00:07:30;2.38;;;1.70;;
24357;SDS011;13668;52.154;5.580;2023-08-31T00:09:57;1.50;;;1.23;;
24357;SDS011;13668;52.154;5.580;2023-08-31T00:12:23;2.22;;;1.25;;
24357;SDS011;13668;52.154;5.580;2023-08-31T00:14:49;2.08;;;1.48;;
24357;SDS011;13668;52.154;5.580;2023-08-31T00:17:16;1.45;;;1.30;;
24357;SDS011;13668;52.154;5.580;2023-08-31T00:19:43;2.88;;;1.60;;
24357;SDS011;13668;52.154;5.580;2023-08-31T00:22:09;2.53;;;1.40;;
24357;SDS011;13668;52.154;5.580;2023-08-31T00:24:35;1.83;;;1.50;;
24357;SDS011;13668;52.154;5.580;2023-08-31T00:27:01;2.40;;;1.80;;
24357;SDS011;13668;52.154;5.580;2023-08-31T00:29:28;1.60;;;1.42;;
24357;SDS011;13668;52.154;5.580;2023-08-31T00:31:54;2.60;;;2.05;;
24357;SDS011;13668;52.154;5.580;2023-08-31T00:34:20;2.33;;;1.73;;
24357;SDS011;13668;52.154;5.580;2023-08-31T00:36:46;1.65;;;1.50;;
24357;SDS011;13668;52.154;5.580;2023-08-31T00:39:13;2.97;;;1.77;;
24357;SDS011;13668;52.154;5.580;2023-08-31T00:41:39;1.73;;;1.58;;
24357;SDS011;13668;52.154;5.580;2023-08-31T00:44:05;2.00;;;1.55;;
24357;SDS011;13668;52.154;5.580;2023-08-31T00:46:32;4.05;;;2.40;;
24357;SDS011;13668;52.154;5.580;2023-08-31T00:48:58;2.75;;;2.50;;
24357;SDS011;13668;52.154;5.580;2023-08-31T00:51:24;3.40;;;2.17;;
24357;SDS011;13668;52.154;5.580;2023-08-31T00:53:51;2.10;;;1.65;;
24357;SDS011;13668;52.154;5.580;2023-08-31T00:56:19;4.40;;;3.00;;
24357;SDS011;13668;52.154;5.580;2023-08-31T00:58:45;4.78;;;2.25;;
24357;SDS011;13668;52.154;5.580;2023-08-31T01:14:24;3.00;;;2.00;;
24357;SDS011;13668;52.154;5.580;2023-08-31T01:16:51;3.38;;;2.28;;
24357;SDS011;13668;52.154;5.580;2023-08-31T01:22:00;5.22;;;2.78;;
24357;SDS011;13668;52.154;5.580;2023-08-31T01:24:29;3.67;;;2.55;;
24357;SDS011;13668;52.154;5.580;2023-08-31T01:26:55;2.88;;;2.58;;
24357;SDS011;13668;52.154;5.580;2023-08-31T01:29:22;3.13;;;2.35;;
24357;SDS011;13668;52.154;5.580;2023-08-31T01:31:48;4.97;;;2.58;;
24357;SDS011;13668;52.154;5.580;2023-08-31T01:34:14;3.53;;;2.80;;
24357;SDS011;13668;52.154;5.580;2023-08-31T01:36:42;3.92;;;2.55;;
24357;SDS011;13668;52.154;5.580;2023-08-31T01:39:10;4.82;;;3.17;;
24357;SDS011;13668;52.154;5.580;2023-08-31T01:41:40;3.70;;;2.65;;
24357;SDS011;13668;52.154;5.580;2023-08-31T01:44:06;2.85;;;2.20;;
24357;SDS011;13668;52.154;5.580;2023-08-31T01:46:38;4.95;;;2.65;;
24357;SDS011;13668;52.154;5.580;2023-08-31T01:49:04;2.55;;;2.35;;
24357;SDS011;13668;52.154;5.580;2023-08-31T01:51:30;3.03;;;2.60;;
24357;SDS011;13668;52.154;5.580;2023-08-31T01:53:56;4.63;;;3.13;;
24357;SDS011;13668;52.154;5.580;2023-08-31T01:56:24;3.13;;;2.60;;
24357;SDS011;13668;52.154;5.580;2023-08-31T01:58:49;5.47;;;3.22;;
24357;SDS011;13668;52.154;5.580;2023-08-31T02:01:15;4.32;;;3.30;;
24357;SDS011;13668;52.154;5.580;2023-08-31T02:03:42;3.83;;;3.30;;
24357;SDS011;13668;52.154;5.580;2023-08-31T02:06:08;6.47;;;3.53;;
24357;SDS011;13668;52.154;5.580;2023-08-31T02:08:34;6.13;;;4.15;;
24357;SDS011;13668;52.154;5.580;2023-08-31T02:11:00;7.35;;;4.65;;
24357;SDS011;13668;52.154;5.580;2023-08-31T02:13:26;5.15;;;3.97;;
24357;SDS011;13668;52.154;5.580;2023-08-31T02:15:53;4.45;;;3.95;;
24357;SDS011;13668;52.154;5.580;2023-08-31T02:18:19;4.05;;;3.20;;
24357;SDS011;13668;52.154;5.580;2023-08-31T02:20:45;3.90;;;3.47;;
24357;SDS011;13668;52.154;5.580;2023-08-31T02:23:11;3.72;;;3.30;;
24357;SDS011;13668;52.154;5.580;2023-08-31T02:25:37;6.53;;;2.67;;
24357;SDS011;13668;52.154;5.580;2023-08-31T02:28:03;3.38;;;2.90;;
24357;SDS011;13668;52.154;5.580;2023-08-31T02:30:30;2.83;;;2.42;;
24357;SDS011;13668;52.154;5.580;2023-08-31T02:32:56;2.40;;;2.20;;
24357;SDS011;13668;52.154;5.580;2023-08-31T02:35:22;3.38;;;2.88;;
24357;SDS011;13668;52.154;5.580;2023-08-31T02:37:48;5.47;;;3.13;;
24357;SDS011;13668;52.154;5.580;2023-08-31T02:40:14;4.97;;;3.58;;
24357;SDS011;13668;52.154;5.580;2023-08-31T02:42:40;4.15;;;3.75;;
24357;SDS011;13668;52.154;5.580;2023-08-31T02:45:07;5.05;;;4.10;;
24357;SDS011;13668;52.154;5.580;2023-08-31T02:47:33;4.70;;;4.38;;
24357;SDS011;13668;52.154;5.580;2023-08-31T02:49:59;6.97;;;4.40;;
24357;SDS011;13668;52.154;5.580;2023-08-31T02:52:25;4.43;;;4.03;;
24357;SDS011;13668;52.154;5.580;2023-08-31T02:54:51;8.20;;;5.00;;
24357;SDS011;13668;52.154;5.580;2023-08-31T02:57:17;6.25;;;5.53;;
24357;SDS011;13668;52.154;5.580;2023-08-31T02:59:44;8.52;;;5.03;;
24357;SDS011;13668;52.154;5.580;2023-08-31T03:02:11;6.88;;;5.15;;
24357;SDS011;13668;52.154;5.580;2023-08-31T03:04:38;6.22;;;5.50;;
24357;SDS011;13668;52.154;5.580;2023-08-31T03:07:04;5.70;;;4.88;;
24357;SDS011;13668;52.154;5.580;2023-08-31T03:09:30;6.10;;;5.25;;
24357;SDS011;13668;52.154;5.580;2023-08-31T03:11:56;6.63;;;4.85;;
24357;SDS011;13668;52.154;5.580;2023-08-31T03:14:22;8.10;;;6.18;;
24357;SDS011;13668;52.154;5.580;2023-08-31T03:16:49;6.18;;;4.82;;
24357;SDS011;13668;52.154;5.580;2023-08-31T03:19:15;5.78;;;4.55;;
24357;SDS011;13668;52.154;5.580;2023-08-31T03:21:41;5.60;;;4.57;;
24357;SDS011;13668;52.154;5.580;2023-08-31T03:24:07;5.55;;;4.43;;
24357;SDS011;13668;52.154;5.580;2023-08-31T03:26:33;7.38;;;5.07;;
24357;SDS011;13668;52.154;5.580;2023-08-31T03:28:59;5.63;;;4.55;;
24357;SDS011;13668;52.154;5.580;2023-08-31T03:31:25;6.60;;;4.68;;
24357;SDS011;13668;52.154;5.580;2023-08-31T03:33:51;6.85;;;4.45;;
24357;SDS011;13668;52.154;5.580;2023-08-31T03:36:17;6.55;;;4.35;;
24357;SDS011;13668;52.154;5.580;2023-08-31T03:38:43;5.28;;;4.10;;
24357;SDS011;13668;52.154;5.580;2023-08-31T03:41:09;6.85;;;4.28;;
24357;SDS011;13668;52.154;5.580;2023-08-31T03:43:35;5.07;;;4.40;;
24357;SDS011;13668;52.154;5.580;2023-08-31T03:46:01;6.82;;;4.45;;
24357;SDS011;13668;52.154;5.580;2023-08-31T03:48:27;7.05;;;4.18;;
24357;SDS011;13668;52.154;5.580;2023-08-31T03:50:53;5.18;;;3.72;;
24357;SDS011;13668;52.154;5.580;2023-08-31T03:53:19;6.35;;;4.13;;
24357;SDS011;13668;52.154;5.580;2023-08-31T03:55:45;3.60;;;3.30;;
24357;SDS011;13668;52.154;5.580;2023-08-31T03:58:11;6.40;;;3.83;;
24357;SDS011;13668;52.154;5.580;2023-08-31T04:00:37;7.63;;;4.18;;
24357;SDS011;13668;52.154;5.580;2023-08-31T04:03:04;4.95;;;3.55;;
24357;SDS011;13668;52.154;5.580;2023-08-31T04:05:33;5.72;;;3.83;;
24357;SDS011;13668;52.154;5.580;2023-08-31T04:07:59;5.93;;;4.28;;
24357;SDS011;13668;52.154;5.580;2023-08-31T04:10:25;5.28;;;4.25;;
24357;SDS011;13668;52.154;5.580;2023-08-31T04:12:52;5.13;;;3.63;;
24357;SDS011;13668;52.154;5.580;2023-08-31T04:15:18;5.70;;;3.88;;
24357;SDS011;13668;52.154;5.580;2023-08-31T04:17:44;3.88;;;3.47;;
24357;SDS011;13668;52.154;5.580;2023-08-31T04:20:10;4.47;;;3.47;;
24357;SDS011;13668;52.154;5.580;2023-08-31T04:22:37;4.95;;;3.05;;
24357;SDS011;13668;52.154;5.580;2023-08-31T04:25:03;3.92;;;3.08;;
24357;SDS011;13668;52.154;5.580;2023-08-31T04:27:29;4.90;;;3.67;;
24357;SDS011;13668;52.154;5.580;2023-08-31T04:29:59;4.50;;;2.97;;
24357;SDS011;13668;52.154;5.580;2023-08-31T04:32:26;6.65;;;3.20;;
24357;SDS011;13668;52.154;5.580;2023-08-31T04:34:52;4.93;;;3.05;;
24357;SDS011;13668;52.154;5.580;2023-08-31T04:37:18;4.70;;;3.38;;
24357;SDS011;13668;52.154;5.580;2023-08-31T04:39:44;5.78;;;4.07;;
24357;SDS011;13668;52.154;5.580;2023-08-31T04:42:10;3.67;;;3.08;;
24357;SDS011;13668;52.154;5.580;2023-08-31T04:44:36;7.57;;;4.28;;
24357;SDS011;13668;52.154;5.580;2023-08-31T04:47:02;7.80;;;4.35;;
24357;SDS011;13668;52.154;5.580;2023-08-31T04:49:28;7.32;;;4.70;;
24357;SDS011;13668;52.154;5.580;2023-08-31T04:51:53;7.55;;;4.68;;
24357;SDS011;13668;52.154;5.580;2023-08-31T04:54:19;8.02;;;4.70;;
24357;SDS011;13668;52.154;5.580;2023-08-31T04:56:45;7.95;;;5.05;;
24357;SDS011;13668;52.154;5.580;2023-08-31T04:59:11;6.93;;;5.72;;
24357;SDS011;13668;52.154;5.580;2023-08-31T05:01:37;6.25;;;4.80;;
24357;SDS011;13668;52.154;5.580;2023-08-31T05:04:03;6.82;;;5.07;;
24357;SDS011;13668;52.154;5.580;2023-08-31T05:06:29;7.05;;;5.20;;
24357;SDS011;13668;52.154;5.580;2023-08-31T05:08:55;8.57;;;5.45;;
24357;SDS011;13668;52.154;5.580;2023-08-31T05:11:22;6.80;;;4.75;;
24357;SDS011;13668;52.154;5.580;2023-08-31T05:13:47;6.07;;;4.60;;
24357;SDS011;13668;52.154;5.580;2023-08-31T05:16:14;8.25;;;4.93;;
24357;SDS011;13668;52.154;5.580;2023-08-31T05:18:40;3.40;;;3.03;;
24357;SDS011;13668;52.154;5.580;2023-08-31T05:21:06;5.35;;;3.47;;
24357;SDS011;13668;52.154;5.580;2023-08-31T05:23:32;4.53;;;3.35;;
24357;SDS011;13668;52.154;5.580;2023-08-31T05:25:59;5.82;;;4.47;;
24357;SDS011;13668;52.154;5.580;2023-08-31T05:28:26;6.38;;;3.50;;
24357;SDS011;13668;52.154;5.580;2023-08-31T05:30:52;5.32;;;3.78;;
24357;SDS011;13668;52.154;5.580;2023-08-31T05:33:19;3.50;;;3.20;;
24357;SDS011;13668;52.154;5.580;2023-08-31T05:35:47;5.35;;;2.47;;
24357;SDS011;13668;52.154;5.580;2023-08-31T05:38:13;6.35;;;2.72;;
24357;SDS011;13668;52.154;5.580;2023-08-31T05:40:39;5.03;;;2.40;;
24357;SDS011;13668;52.154;5.580;2023-08-31T05:43:10;3.13;;;2.13;;
24357;SDS011;13668;52.154;5.580;2023-08-31T05:45:36;4.45;;;2.97;;
24357;SDS011;13668;52.154;5.580;2023-08-31T05:48:02;4.57;;;2.97;;
24357;SDS011;13668;52.154;5.580;2023-08-31T05:50:29;4.03;;;3.58;;
24357;SDS011;13668;52.154;5.580;2023-08-31T05:52:55;5.78;;;4.22;;
24357;SDS011;13668;52.154;5.580;2023-08-31T05:55:21;7.38;;;4.47;;
24357;SDS011;13668;52.154;5.580;2023-08-31T05:57:47;6.05;;;4.55;;
24357;SDS011;13668;52.154;5.580;2023-08-31T06:00:13;6.00;;;4.95;;
24357;SDS011;13668;52.154;5.580;2023-08-31T06:02:40;7.55;;;5.38;;
24357;SDS011;13668;52.154;5.580;2023-08-31T06:05:06;7.55;;;5.30;;
24357;SDS011;13668;52.154;5.580;2023-08-31T06:07:32;7.35;;;4.75;;
24357;SDS011;13668;52.154;5.580;2023-08-31T06:09:58;8.05;;;5.80;;
24357;SDS011;13668;52.154;5.580;2023-08-31T06:12:24;7.38;;;5.35;;
24357;SDS011;13668;52.154;5.580;2023-08-31T06:14:50;8.02;;;5.50;;
24357;SDS011;13668;52.154;5.580;2023-08-31T06:17:16;11.48;;;6.55;;
24357;SDS011;13668;52.154;5.580;2023-08-31T06:19:42;7.65;;;5.57;;
24357;SDS011;13668;52.154;5.580;2023-08-31T06:22:08;9.93;;;6.50;;
24357;SDS011;13668;52.154;5.580;2023-08-31T06:24:34;8.27;;;6.40;;
24357;SDS011;13668;52.154;5.580;2023-08-31T06:27:01;10.57;;;7.25;;
24357;SDS011;13668;52.154;5.580;2023-08-31T06:29:27;10.10;;;7.15;;
24357;SDS011;13668;52.154;5.580;2023-08-31T06:31:53;10.63;;;6.47;;
24357;SDS011;13668;52.154;5.580;2023-08-31T06:34:19;11.30;;;6.93;;
24357;SDS011;13668;52.154;5.580;2023-08-31T06:36:45;9.55;;;6.40;;
24357;SDS011;13668;52.154;5.580;2023-08-31T06:39:11;7.80;;;5.78;;
24357;SDS011;13668;52.154;5.580;2023-08-31T06:41:37;7.90;;;6.00;;
24357;SDS011;13668;52.154;5.580;2023-08-31T06:44:03;5.47;;;4.50;;
24357;SDS011;13668;52.154;5.580;2023-08-31T06:46:30;6.93;;;4.30;;
24357;SDS011;13668;52.154;5.580;2023-08-31T06:49:03;6.22;;;4.03;;
24357;SDS011;13668;52.154;5.580;2023-08-31T06:51:29;6.40;;;4.38;;
24357;SDS011;13668;52.154;5.580;2023-08-31T06:53:55;6.30;;;5.00;;
24357;SDS011;13668;52.154;5.580;2023-08-31T06:56:27;6.35;;;4.63;;
24357;SDS011;13668;52.154;5.580;2023-08-31T06:58:52;8.13;;;5.43;;
24357;SDS011;13668;52.154;5.580;2023-08-31T07:01:18;6.43;;;5.13;;
24357;SDS011;13668;52.154;5.580;2023-08-31T07:03:45;5.20;;;4.40;;
24357;SDS011;13668;52.154;5.580;2023-08-31T07:06:11;8.70;;;5.45;;
24357;SDS011;13668;52.154;5.580;2023-08-31T07:08:36;5.85;;;4.22;;
24357;SDS011;13668;52.154;5.580;2023-08-31T07:11:05;2.95;;;2.72;;
24357;SDS011;13668;52.154;5.580;2023-08-31T07:13:31;3.30;;;2.67;;
24357;SDS011;13668;52.154;5.580;2023-08-31T07:16:00;3.63;;;2.50;;
24357;SDS011;13668;52.154;5.580;2023-08-31T07:18:26;1.98;;;1.75;;
24357;SDS011;13668;52.154;5.580;2023-08-31T07:20:52;3.33;;;2.28;;
24357;SDS011;13668;52.154;5.580;2023-08-31T07:23:18;2.50;;;1.77;;
24357;SDS011;13668;52.154;5.580;2023-08-31T07:25:44;2.35;;;2.15;;
24357;SDS011;13668;52.154;5.580;2023-08-31T07:28:10;2.22;;;2.00;;
24357;SDS011;13668;52.154;5.580;2023-08-31T07:30:36;2.00;;;1.90;;
24357;SDS011;13668;52.154;5.580;2023-08-31T07:33:02;2.20;;;2.00;;
24357;SDS011;13668;52.154;5.580;2023-08-31T07:35:29;2.70;;;1.80;;
24357;SDS011;13668;52.154;5.580;2023-08-31T07:37:55;2.75;;;2.50;;
24357;SDS011;13668;52.154;5.580;2023-08-31T07:40:21;3.22;;;2.50;;
24357;SDS011;13668;52.154;5.580;2023-08-31T07:42:47;2.92;;;1.95;;
24357;SDS011;13668;52.154;5.580;2023-08-31T07:45:13;4.43;;;2.00;;
24357;SDS011;13668;52.154;5.580;2023-08-31T07:47:39;2.58;;;2.35;;
24357;SDS011;13668;52.154;5.580;2023-08-31T07:50:05;3.40;;;2.47;;
24357;SDS011;13668;52.154;5.580;2023-08-31T07:52:32;2.60;;;2.38;;
24357;SDS011;13668;52.154;5.580;2023-08-31T07:54:58;3.65;;;2.78;;
24357;SDS011;13668;52.154;5.580;2023-08-31T07:57:24;4.25;;;3.00;;
24357;SDS011;13668;52.154;5.580;2023-08-31T07:59:49;3.33;;;2.42;;
24357;SDS011;13668;52.154;5.580;2023-08-31T08:02:15;2.95;;;2.53;;
24357;SDS011;13668;52.154;5.580;2023-08-31T08:04:41;3.20;;;2.50;;
24357;SDS011;13668;52.154;5.580;2023-08-31T08:07:07;2.55;;;2.10;;
24357;SDS011;13668;52.154;5.580;2023-08-31T08:09:34;3.35;;;2.28;;
24357;SDS011;13668;52.154;5.580;2023-08-31T08:12:00;2.63;;;2.42;;
24357;SDS011;13668;52.154;5.580;2023-08-31T08:14:26;4.13;;;2.28;;
24357;SDS011;13668;52.154;5.580;2023-08-31T08:16:52;3.00;;;1.65;;
24357;SDS011;13668;52.154;5.580;2023-08-31T08:19:22;3.30;;;1.60;;
24357;SDS011;13668;52.154;5.580;2023-08-31T08:21:48;3.45;;;1.92;;
24357;SDS011;13668;52.154;5.580;2023-08-31T08:24:14;2.78;;;1.55;;
24357;SDS011;13668;52.154;5.580;2023-08-31T08:26:40;2.78;;;2.05;;
24357;SDS011;13668;52.154;5.580;2023-08-31T08:29:06;1.65;;;1.13;;
24357;SDS011;13668;52.154;5.580;2023-08-31T08:31:32;1.58;;;1.38;;
24357;SDS011;13668;52.154;5.580;2023-08-31T08:33:58;2.67;;;1.50;;
24357;SDS011;13668;52.154;5.580;2023-08-31T08:36:24;2.80;;;1.52;;
24357;SDS011;13668;52.154;5.580;2023-08-31T08:38:50;1.77;;;1.38;;
24357;SDS011;13668;52.154;5.580;2023-08-31T08:41:16;2.63;;;1.52;;
24357;SDS011;13668;52.154;5.580;2023-08-31T08:43:44;2.40;;;1.80;;
24357;SDS011;13668;52.154;5.580;2023-08-31T08:46:12;4.05;;;2.17;;
24357;SDS011;13668;52.154;5.580;2023-08-31T08:48:39;2.47;;;2.20;;
24357;SDS011;13668;52.154;5.580;2023-08-31T08:51:05;2.83;;;2.42;;
24357;SDS011;13668;52.154;5.580;2023-08-31T08:53:32;3.40;;;2.58;;
24357;SDS011;13668;52.154;5.580;2023-08-31T08:55:58;3.40;;;3.03;;
24357;SDS011;13668;52.154;5.580;2023-08-31T08:58:24;3.67;;;2.85;;
24357;SDS011;13668;52.154;5.580;2023-08-31T09:00:51;6.32;;;3.75;;
24357;SDS011;13668;52.154;5.580;2023-08-31T09:03:18;7.30;;;4.15;;
24357;SDS011;13668;52.154;5.580;2023-08-31T09:05:44;3.45;;;3.15;;
24357;SDS011;13668;52.154;5.580;2023-08-31T09:08:10;3.80;;;3.13;;
24357;SDS011;13668;52.154;5.580;2023-08-31T09:10:41;4.38;;;3.78;;
24357;SDS011;13668;52.154;5.580;2023-08-31T09:13:14;4.15;;;2.88;;
24357;SDS011;13668;52.154;5.580;2023-08-31T09:15:46;15.43;;;3.65;;
24357;SDS011;13668;52.154;5.580;2023-08-31T09:20:47;4.10;;;1.95;;
24357;SDS011;13668;52.154;5.580;2023-08-31T09:23:14;3.38;;;2.05;;
24357;SDS011;13668;52.154;5.580;2023-08-31T09:25:43;4.00;;;2.20;;
24357;SDS011;13668;52.154;5.580;2023-08-31T09:28:10;2.78;;;2.13;;
24357;SDS011;13668;52.154;5.580;2023-08-31T09:30:37;2.40;;;2.20;;
24357;SDS011;13668;52.154;5.580;2023-08-31T09:33:04;4.05;;;1.85;;
24357;SDS011;13668;52.154;5.580;2023-08-31T09:35:30;2.00;;;1.73;;
24357;SDS011;13668;52.154;5.580;2023-08-31T09:37:56;2.97;;;1.95;;
24357;SDS011;13668;52.154;5.580;2023-08-31T09:40:23;3.78;;;2.35;;
24357;SDS011;13668;52.154;5.580;2023-08-31T09:42:49;3.38;;;1.98;;
24357;SDS011;13668;52.154;5.580;2023-08-31T09:45:25;2.25;;;1.55;;
24357;SDS011;13668;52.154;5.580;2023-08-31T09:47:51;5.25;;;2.17;;
24357;SDS011;13668;52.154;5.580;2023-08-31T09:50:17;3.50;;;1.13;;
24357;SDS011;13668;52.154;5.580;2023-08-31T09:52:44;4.13;;;1.30;;
24357;SDS011;13668;52.154;5.580;2023-08-31T09:55:11;2.28;;;1.05;;
24357;SDS011;13668;52.154;5.580;2023-08-31T09:57:37;3.58;;;0.73;;
24357;SDS011;13668;52.154;5.580;2023-08-31T10:00:07;1.70;;;0.95;;
24357;SDS011;13668;52.154;5.580;2023-08-31T10:02:33;2.50;;;0.77;;
24357;SDS011;13668;52.154;5.580;2023-08-31T10:05:00;3.75;;;0.70;;
24357;SDS011;13668;52.154;5.580;2023-08-31T10:07:26;0.50;;;0.50;;
24357;SDS011;13668;52.154;5.580;2023-08-31T10:09:52;0.65;;;0.50;;
24357;SDS011;13668;52.154;5.580;2023-08-31T10:12:18;1.30;;;0.85;;
24357;SDS011;13668;52.154;5.580;2023-08-31T10:14:45;2.15;;;0.47;;
24357;SDS011;13668;52.154;5.580;2023-08-31T10:17:13;1.48;;;0.55;;
24357;SDS011;13668;52.154;5.580;2023-08-31T10:19:39;1.13;;;0.98;;
24357;SDS011;13668;52.154;5.580;2023-08-31T10:22:06;2.55;;;0.45;;
24357;SDS011;13668;52.154;5.580;2023-08-31T10:27:17;0.68;;;0.32;;
24357;SDS011;13668;52.154;5.580;2023-08-31T10:29:43;0.88;;;0.43;;
24357;SDS011;13668;52.154;5.580;2023-08-31T10:32:09;1.10;;;0.32;;
24357;SDS011;13668;52.154;5.580;2023-08-31T10:34:35;0.40;;;0.22;;
24357;SDS011;13668;52.154;5.580;2023-08-31T10:37:02;2.60;;;0.40;;
24357;SDS011;13668;52.154;5.580;2023-08-31T10:39:37;1.05;;;0.40;;
24357;SDS011;13668;52.154;5.580;2023-08-31T10:42:04;2.10;;;0.45;;
24357;SDS011;13668;52.154;5.580;2023-08-31T10:44:30;0.30;;;0.13;;
24357;SDS011;13668;52.154;5.580;2023-08-31T10:46:59;1.45;;;0.65;;
24357;SDS011;13668;52.154;5.580;2023-08-31T10:49:25;0.30;;;0.20;;
24357;SDS011;13668;52.154;5.580;2023-08-31T10:52:14;2.20;;;0.45;;
24357;SDS011;13668;52.154;5.580;2023-08-31T10:54:41;0.60;;;0.40;;
24357;SDS011;13668;52.154;5.580;2023-08-31T10:57:07;0.47;;;0.22;;
24357;SDS011;13668;52.154;5.580;2023-08-31T10:59:50;0.60;;;0.30;;
24357;SDS011;13668;52.154;5.580;2023-08-31T11:02:29;0.50;;;0.30;;
24357;SDS011;13668;52.154;5.580;2023-08-31T11:05:11;1.73;;;0.98;;
24357;SDS011;13668;52.154;5.580;2023-08-31T11:07:39;0.35;;;0.20;;
24357;SDS011;13668;52.154;5.580;2023-08-31T11:10:12;1.60;;;0.60;;
24357;SDS011;13668;52.154;5.580;2023-08-31T11:12:43;0.50;;;0.22;;
24357;SDS011;13668;52.154;5.580;2023-08-31T11:15:11;1.25;;;0.30;;
24357;SDS011;13668;52.154;5.580;2023-08-31T11:17:37;0.20;;;0.10;;
24357;SDS011;13668;52.154;5.580;2023-08-31T11:20:05;0.45;;;0.20;;
24357;SDS011;13668;52.154;5.580;2023-08-31T11:22:34;1.27;;;0.30;;
24357;SDS011;13668;52.154;5.580;2023-08-31T11:25:00;0.10;;;0.10;;
24357;SDS011;13668;52.154;5.580;2023-08-31T11:27:26;0.77;;;0.22;;
24357;SDS011;13668;52.154;5.580;2023-08-31T11:29:52;0.43;;;0.20;;
24357;SDS011;13668;52.154;5.580;2023-08-31T11:32:18;0.65;;;0.28;;
24357;SDS011;13668;52.154;5.580;2023-08-31T11:34:44;0.40;;;0.25;;
24357;SDS011;13668;52.154;5.580;2023-08-31T11:37:11;0.82;;;0.22;;
24357;SDS011;13668;52.154;5.580;2023-08-31T11:39:40;1.88;;;0.10;;
24357;SDS011;13668;52.154;5.580;2023-08-31T11:42:06;0.13;;;0.13;;
24357;SDS011;13668;52.154;5.580;2023-08-31T11:44:32;0.38;;;0.22;;
24357;SDS011;13668;52.154;5.580;2023-08-31T11:46:58;1.90;;;0.17;;
24357;SDS011;13668;52.154;5.580;2023-08-31T11:49:25;1.30;;;0.30;;
24357;SDS011;13668;52.154;5.580;2023-08-31T11:51:53;0.63;;;0.43;;
24357;SDS011;13668;52.154;5.580;2023-08-31T11:54:19;2.50;;;0.50;;
24357;SDS011;13668;52.154;5.580;2023-08-31T11:56:45;2.75;;;0.95;;
24357;SDS011;13668;52.154;5.580;2023-08-31T11:59:16;1.30;;;0.28;;
24357;SDS011;13668;52.154;5.580;2023-08-31T12:01:42;0.70;;;0.40;;
24357;SDS011;13668;52.154;5.580;2023-08-31T12:04:12;1.23;;;0.30;;
24357;SDS011;13668;52.154;5.580;2023-08-31T12:06:39;0.40;;;0.40;;
24357;SDS011;13668;52.154;5.580;2023-08-31T12:09:06;1.65;;;0.30;;
24357;SDS011;13668;52.154;5.580;2023-08-31T12:11:32;1.58;;;0.52;;
24357;SDS011;13668;52.154;5.580;2023-08-31T12:14:02;0.38;;;0.38;;
24357;SDS011;13668;52.154;5.580;2023-08-31T12:16:32;0.60;;;0.32;;
24357;SDS011;13668;52.154;5.580;2023-08-31T12:19:00;0.52;;;0.28;;
24357;SDS011;13668;52.154;5.580;2023-08-31T12:21:27;0.32;;;0.32;;
24357;SDS011;13668;52.154;5.580;2023-08-31T12:23:53;0.52;;;0.30;;
24357;SDS011;13668;52.154;5.580;2023-08-31T12:26:19;1.33;;;0.50;;
24357;SDS011;13668;52.154;5.580;2023-08-31T12:28:45;0.25;;;0.15;;
24357;SDS011;13668;52.154;5.580;2023-08-31T12:31:11;0.20;;;0.20;;
24357;SDS011;13668;52.154;5.580;2023-08-31T12:33:37;0.50;;;0.38;;
24357;SDS011;13668;52.154;5.580;2023-08-31T12:36:03;2.15;;;0.20;;
24357;SDS011;13668;52.154;5.580;2023-08-31T12:38:29;0.55;;;0.30;;
24357;SDS011;13668;52.154;5.580;2023-08-31T12:40:56;0.35;;;0.20;;
24357;SDS011;13668;52.154;5.580;2023-08-31T12:43:22;0.30;;;0.20;;
24357;SDS011;13668;52.154;5.580;2023-08-31T12:45:48;0.55;;;0.20;;
24357;SDS011;13668;52.154;5.580;2023-08-31T12:48:14;1.65;;;0.10;;
24357;SDS011;13668;52.154;5.580;2023-08-31T12:50:40;0.82;;;0.30;;
24357;SDS011;13668;52.154;5.580;2023-08-31T12:53:06;1.60;;;0.20;;
24357;SDS011;13668;52.154;5.580;2023-08-31T12:55:32;2.20;;;0.43;;
24357;SDS011;13668;52.154;5.580;2023-08-31T12:57:58;2.88;;;0.60;;
24357;SDS011;13668;52.154;5.580;2023-08-31T13:00:24;3.33;;;0.32;;
24357;SDS011;13668;52.154;5.580;2023-08-31T13:02:50;2.38;;;0.93;;
24357;SDS011;13668;52.154;5.580;2023-08-31T13:05:16;0.95;;;0.30;;
24357;SDS011;13668;52.154;5.580;2023-08-31T13:07:42;1.80;;;0.28;;
24357;SDS011;13668;52.154;5.580;2023-08-31T13:10:08;0.43;;;0.30;;
24357;SDS011;13668;52.154;5.580;2023-08-31T13:12:34;0.73;;;0.25;;
24357;SDS011;13668;52.154;5.580;2023-08-31T13:15:02;1.02;;;0.35;;
24357;SDS011;13668;52.154;5.580;2023-08-31T13:17:28;1.60;;;0.20;;
24357;SDS011;13668;52.154;5.580;2023-08-31T13:19:57;0.30;;;0.30;;
24357;SDS011;13668;52.154;5.580;2023-08-31T13:22:23;1.52;;;0.60;;
24357;SDS011;13668;52.154;5.580;2023-08-31T13:24:50;1.60;;;0.60;;
24357;SDS011;13668;52.154;5.580;2023-08-31T13:27:16;1.63;;;0.38;;
24357;SDS011;13668;52.154;5.580;2023-08-31T13:29:42;0.65;;;0.30;;
24357;SDS011;13668;52.154;5.580;2023-08-31T13:32:08;2.40;;;0.50;;
24357;SDS011;13668;52.154;5.580;2023-08-31T13:34:34;0.20;;;0.13;;
24357;SDS011;13668;52.154;5.580;2023-08-31T13:37:01;0.80;;;0.30;;
24357;SDS011;13668;52.154;5.580;2023-08-31T13:39:27;1.23;;;0.30;;
24357;SDS011;13668;52.154;5.580;2023-08-31T13:41:57;0.65;;;0.20;;
24357;SDS011;13668;52.154;5.580;2023-08-31T13:44:26;1.42;;;0.35;;
24357;SDS011;13668;52.154;5.580;2023-08-31T13:46:51;0.25;;;0.20;;
24357;SDS011;13668;52.154;5.580;2023-08-31T13:49:17;1.85;;;0.30;;
24357;SDS011;13668;52.154;5.580;2023-08-31T13:51:43;0.50;;;0.40;;
24357;SDS011;13668;52.154;5.580;2023-08-31T13:54:10;2.55;;;0.55;;
24357;SDS011;13668;52.154;5.580;2023-08-31T13:56:36;1.48;;;0.77;;
24357;SDS011;13668;52.154;5.580;2023-08-31T13:59:02;0.17;;;0.15;;
24357;SDS011;13668;52.154;5.580;2023-08-31T14:01:29;1.65;;;0.35;;
24357;SDS011;13668;52.154;5.580;2023-08-31T14:03:55;1.92;;;0.25;;
24357;SDS011;13668;52.154;5.580;2023-08-31T14:06:21;0.55;;;0.30;;
24357;SDS011;13668;52.154;5.580;2023-08-31T14:08:47;1.10;;;0.55;;
24357;SDS011;13668;52.154;5.580;2023-08-31T14:11:13;1.50;;;0.47;;
24357;SDS011;13668;52.154;5.580;2023-08-31T14:13:39;0.65;;;0.22;;
24357;SDS011;13668;52.154;5.580;2023-08-31T14:16:06;0.32;;;0.25;;
24357;SDS011;13668;52.154;5.580;2023-08-31T14:18:32;1.52;;;0.45;;
24357;SDS011;13668;52.154;5.580;2023-08-31T14:20:58;0.45;;;0.20;;
24357;SDS011;13668;52.154;5.580;2023-08-31T14:23:25;0.20;;;0.20;;
24357;SDS011;13668;52.154;5.580;2023-08-31T14:25:51;0.10;;;0.10;;
24357;SDS011;13668;52.154;5.580;2023-08-31T14:28:18;0.80;;;0.30;;
24357;SDS011;13668;52.154;5.580;2023-08-31T14:30:44;2.47;;;0.43;;
24357;SDS011;13668;52.154;5.580;2023-08-31T14:33:10;0.30;;;0.25;;
24357;SDS011;13668;52.154;5.580;2023-08-31T14:35:36;0.32;;;0.22;;
24357;SDS011;13668;52.154;5.580;2023-08-31T14:38:02;0.80;;;0.40;;
24357;SDS011;13668;52.154;5.580;2023-08-31T14:40:31;0.17;;;0.17;;
24357;SDS011;13668;52.154;5.580;2023-08-31T14:42:59;0.30;;;0.20;;
24357;SDS011;13668;52.154;5.580;2023-08-31T14:45:25;1.38;;;0.50;;
24357;SDS011;13668;52.154;5.580;2023-08-31T14:47:51;0.55;;;0.30;;
24357;SDS011;13668;52.154;5.580;2023-08-31T14:50:17;0.60;;;0.30;;
24357;SDS011;13668;52.154;5.580;2023-08-31T14:52:43;1.42;;;0.30;;
24357;SDS011;13668;52.154;5.580;2023-08-31T14:55:09;0.45;;;0.45;;
24357;SDS011;13668;52.154;5.580;2023-08-31T14:57:35;1.00;;;0.65;;
24357;SDS011;13668;52.154;5.580;2023-08-31T15:00:01;0.43;;;0.30;;
24357;SDS011;13668;52.154;5.580;2023-08-31T15:02:30;1.42;;;0.30;;
24357;SDS011;13668;52.154;5.580;2023-08-31T15:04:56;1.45;;;0.30;;